Time;durP1;ratioP1;P1;durP2;ratioP2;P2;SDS_P1;SDS_P2;PMS_P1;PMS_P2;Temp;Humidity;BMP_temperature;BMP_pressure;BME280_temperature;BME280_humidity;BME280_pressure;Samples;Min_cycle;Max_cycle;Signal;HPM_P1;HPM_P2
2021/12/14 00:01:17;;;;;;;10.63;8.90;;;8.80;99.90;;;;;;5070771;28;20245;-70
2021/12/14 00:03:44;;;;;;;;;;;8.90;99.90;;;;;;5055371;28;20493;-70
2021/12/14 00:06:12;;;;;;;10.33;9.33;;;9.10;99.90;;;;;;5052259;28;20029;-70
2021/12/14 00:08:49;;;;;;;10.37;9.13;;;8.40;99.90;;;;;;5058120;28;20016;-70
2021/12/14 00:17:15;;;;;;;11.57;9.97;;;8.90;99.90;;;;;;5066948;28;20067;-70
2021/12/14 00:19:41;;;;;;;11.23;10.07;;;8.90;99.90;;;;;;5071802;28;20033;-70
2021/12/14 00:22:20;;;;;;;13.17;9.87;;;8.80;99.90;;;;;;5071364;28;20055;-70
2021/12/14 00:24:47;;;;;;;12.93;10.50;;;8.80;99.90;;;;;;5071685;28;20493;-70
2021/12/14 00:27:14;;;;;;;13.27;9.97;;;8.70;99.90;;;;;;5069863;28;20031;-70
2021/12/14 00:29:46;;;;;;;11.47;9.43;;;8.90;99.90;;;;;;5071968;28;20037;-70
2021/12/14 00:32:18;;;;;;;10.93;9.70;;;8.80;99.90;;;;;;5070885;28;20031;-70
2021/12/14 00:34:44;;;;;;;12.97;10.50;;;;;;;;;;5060336;28;20041;-70
2021/12/14 00:37:17;;;;;;;13.97;11.53;;;8.80;99.90;;;;;;5051375;28;20052;-70
2021/12/14 00:39:44;;;;;;;13.32;11.73;;;8.80;99.90;;;;;;5061807;28;20055;-70
2021/12/14 00:42:10;;;;;;;13.20;11.33;;;;;;;;;;5048680;28;20559;-70
2021/12/14 00:44:36;;;;;;;14.03;11.73;;;8.80;99.90;;;;;;5058062;28;20528;-70
2021/12/14 00:47:03;;;;;;;12.93;11.23;;;8.80;99.90;;;;;;5070756;28;20028;-70
2021/12/14 00:49:29;;;;;;;12.47;11.17;;;;;;;;;;5071703;28;20017;-70
2021/12/14 00:51:55;;;;;;;13.53;11.43;;;9.30;99.90;;;;;;5071196;28;20020;-70
2021/12/14 00:54:22;;;;;;;14.10;11.20;;;8.80;99.90;;;;;;5071393;28;20083;-70
2021/12/14 00:56:49;;;;;;;12.40;10.73;;;8.90;99.90;;;;;;5069753;28;20032;-70
2021/12/14 00:59:16;;;;;;;16.90;12.53;;;8.80;99.90;;;;;;5071294;28;20051;-70
2021/12/14 01:02:10;;;;;;;14.47;12.13;;;8.80;99.90;;;;;;5070799;28;20055;-70
2021/12/14 01:04:56;;;;;;;16.98;10.73;;;8.80;99.90;;;;;;5069426;28;20036;-70
2021/12/14 01:07:25;;;;;;;11.10;10.00;;;8.80;99.90;;;;;;5056883;28;20041;-70
2021/12/14 01:09:56;;;;;;;15.10;10.53;;;8.90;99.90;;;;;;5050655;28;20064;-70
2021/12/14 01:12:35;;;;;;;12.80;11.30;;;8.80;99.90;;;;;;5051151;28;20056;-70
2021/12/14 01:15:30;;;;;;;16.10;12.07;;;8.80;99.90;;;;;;5050419;28;20025;-70
2021/12/14 01:18:16;;;;;;;15.07;12.30;;;8.70;99.90;;;;;;5050838;28;20029;-70
2021/12/14 01:20:49;;;;;;;14.27;12.77;;;8.70;99.90;;;;;;5050918;28;20116;-70
2021/12/14 01:23:26;;;;;;;16.15;12.25;;;8.80;99.90;;;;;;5050991;28;20029;-70
2021/12/14 01:25:53;;;;;;;13.83;12.33;;;8.70;99.90;;;;;;5050639;28;20119;-70
2021/12/14 01:28:23;;;;;;;14.67;12.23;;;8.70;99.90;;;;;;5050704;28;20118;-70
2021/12/14 01:31:23;;;;;;;14.03;12.10;;;8.70;99.90;;;;;;5050254;28;20056;-70
2021/12/14 01:33:47;;;;;;;13.90;10.37;;;8.80;99.90;;;;;;5050201;28;20479;-70
2021/12/14 01:36:26;;;;;;;13.57;12.17;;;8.70;99.90;;;;;;5053496;28;20035;-70
2021/12/14 01:41:40;;;;;;;15.23;12.37;;;8.60;99.90;;;;;;5070769;28;20127;-70
2021/12/14 01:44:07;;;;;;;16.43;13.40;;;8.80;99.90;;;;;;5069702;28;20062;-70
2021/12/14 01:46:39;;;;;;;21.00;14.60;;;8.70;99.90;;;;;;5064012;28;20469;-70
2021/12/14 01:49:08;;;;;;;18.00;14.57;;;8.70;99.90;;;;;;5050030;28;20049;-70
2021/12/14 01:51:38;;;;;;;15.40;13.47;;;8.60;99.90;;;;;;5050102;28;20029;-70
2021/12/14 01:54:06;;;;;;;16.77;14.17;;;8.70;99.90;;;;;;5049986;28;20017;-70
2021/12/14 01:56:32;;;;;;;15.10;13.10;;;8.60;99.90;;;;;;5050351;28;20055;-70
2021/12/14 01:59:12;;;;;;;18.80;15.37;;;8.50;99.90;;;;;;5049426;28;20021;-70
2021/12/14 02:01:53;;;;;;;16.10;13.53;;;8.60;99.90;;;;;;5057437;28;20136;-70
2021/12/14 02:04:21;;;;;;;16.47;13.53;;;8.60;99.90;;;;;;5069969;28;20103;-70
2021/12/14 02:06:55;;;;;;;18.03;15.33;;;8.70;99.90;;;;;;5069883;28;20029;-70
2021/12/14 02:09:26;;;;;;;18.13;13.87;;;8.60;99.90;;;;;;5069964;28;20115;-70
2021/12/14 02:11:54;;;;;;;18.33;14.87;;;8.60;99.90;;;;;;5069503;28;20480;-70
2021/12/14 02:14:20;;;;;;;17.67;14.90;;;8.60;99.90;;;;;;5069103;28;20473;-70
2021/12/14 02:16:56;;;;;;;15.70;13.60;;;8.60;99.90;;;;;;5061611;28;20480;-70
2021/12/14 02:19:22;;;;;;;15.87;13.27;;;8.50;99.90;;;;;;5050759;28;20028;-70
2021/12/14 02:21:50;;;;;;;15.70;12.37;;;8.60;99.90;;;;;;5049778;28;20029;-70
2021/12/14 02:24:21;;;;;;;18.17;14.23;;;8.70;99.90;;;;;;5049573;28;20045;-70
2021/12/14 02:26:48;;;;;;;17.90;15.10;;;8.60;99.90;;;;;;5048451;28;20130;-70
2021/12/14 02:29:30;;;;;;;16.03;13.33;;;8.60;99.90;;;;;;5049325;28;20025;-70
2021/12/14 02:32:05;;;;;;;16.63;14.20;;;8.60;99.90;;;;;;5058827;28;20028;-70
2021/12/14 02:34:37;;;;;;;17.43;14.13;;;8.60;99.90;;;;;;5069589;28;20021;-70
2021/12/14 02:37:03;;;;;;;19.80;14.80;;;8.70;99.90;;;;;;5069160;28;20036;-70
2021/12/14 02:40:03;;;;;;;22.83;15.43;;;;;;;;;;5069331;28;20017;-70
2021/12/14 02:42:25;;;;;;;17.00;13.13;;;8.60;99.90;;;;;;5065823;28;20109;-70
2021/12/14 02:44:54;;;;;;;20.43;15.90;;;8.80;99.90;;;;;;5067732;28;20069;-70
2021/12/14 02:47:20;;;;;;;22.77;16.27;;;8.50;99.90;;;;;;5069292;28;20074;-70
2021/12/14 02:49:48;;;;;;;20.20;16.60;;;8.60;99.90;;;;;;5053390;28;20039;-70
2021/12/14 02:52:26;;;;;;;17.63;15.33;;;8.60;99.90;;;;;;5048879;28;20098;-70
2021/12/14 02:54:56;;;;;;;21.80;17.00;;;8.60;99.90;;;;;;5048857;28;20033;-70
2021/12/14 02:57:25;;;;;;;20.57;16.23;;;8.30;99.90;;;;;;5048713;28;20110;-70
2021/12/14 02:59:53;;;;;;;21.47;17.33;;;8.60;99.90;;;;;;5048711;28;20504;-70
2021/12/14 03:02:24;;;;;;;20.67;16.60;;;8.50;99.90;;;;;;5056864;28;20112;-70
2021/12/14 03:04:57;;;;;;;19.73;15.77;;;8.60;99.90;;;;;;5065818;28;20032;-70
2021/12/14 03:07:26;;;;;;;20.25;14.60;;;8.60;99.90;;;;;;5068901;28;20024;-70
2021/12/14 03:10:06;;;;;;;19.83;16.07;;;8.60;99.90;;;;;;5068609;28;20028;-70
2021/12/14 03:12:39;;;;;;;22.57;17.23;;;8.50;99.90;;;;;;5068675;28;20042;-70
2021/12/14 03:15:21;;;;;;;25.03;17.03;;;8.70;99.90;;;;;;5068530;28;20060;-70
2021/12/14 03:17:50;;;;;;;24.37;18.27;;;8.60;99.90;;;;;;5060993;28;20028;-70
2021/12/14 03:20:23;;;;;;;24.23;17.90;;;8.70;99.90;;;;;;5051089;28;20508;-70
2021/12/14 03:22:59;;;;;;;21.85;18.27;;;8.60;99.90;;;;;;5053216;28;20017;-70
2021/12/14 03:25:27;;;;;;;23.87;18.80;;;8.60;99.90;;;;;;5052558;28;20415;-70
2021/12/14 03:27:53;;;;;;;24.73;18.50;;;8.50;99.90;;;;;;5052901;28;20036;-70
2021/12/14 03:30:27;;;;;;;21.80;17.47;;;8.50;99.90;;;;;;5052923;28;20037;-70
2021/12/14 03:32:57;;;;;;;22.40;17.77;;;8.60;99.90;;;;;;5060955;28;20028;-70
2021/12/14 03:35:42;;;;;;;24.20;17.33;;;8.40;99.90;;;;;;5072765;28;20081;-70
2021/12/14 03:38:18;;;;;;;24.73;17.57;;;8.60;99.90;;;;;;5072545;28;20119;-70
2021/12/14 03:40:52;;;;;;;23.20;17.03;;;8.60;99.90;;;;;;5072257;28;20043;-70
2021/12/14 03:43:17;;;;;;;23.48;16.85;;;8.40;99.90;;;;;;5060671;28;20087;-70
2021/12/14 03:45:43;;;;;;;26.97;17.37;;;8.50;99.90;;;;;;5052736;28;20381;-70
2021/12/14 03:48:09;;;;;;;24.43;18.90;;;8.40;99.90;;;;;;5052141;28;20117;-70
2021/12/14 03:50:41;;;;;;;25.83;19.57;;;8.40;99.90;;;;;;5052635;28;20378;-70
2021/12/14 03:53:07;;;;;;;25.03;19.90;;;8.60;99.90;;;;;;5052330;28;20021;-70
2021/12/14 03:55:37;;;;;;;23.30;17.77;;;8.50;99.90;;;;;;5052179;28;20432;-70
2021/12/14 03:58:09;;;;;;;23.37;18.77;;;8.40;99.90;;;;;;5056060;28;20029;-70
2021/12/14 04:00:40;;;;;;;21.67;16.77;;;10.10;99.90;;;;;;5072402;28;20036;-70
2021/12/14 04:03:10;;;;;;;24.03;17.53;;;8.60;99.90;;;;;;5071978;28;20029;-70
2021/12/14 04:05:41;;;;;;;24.50;17.70;;;8.00;99.90;;;;;;5072396;28;20107;-70
2021/12/14 04:08:07;;;;;;;25.60;19.43;;;8.60;99.90;;;;;;5072073;28;20465;-70
2021/12/14 04:10:35;;;;;;;24.17;18.10;;;8.40;99.90;;;;;;5059992;28;20035;-70
2021/12/14 04:13:00;;;;;;;25.47;18.83;;;8.50;99.90;;;;;;5051894;28;20049;-70
2021/12/14 04:15:27;;;;;;;22.03;16.80;;;7.80;99.90;;;;;;5052118;28;20076;-70
2021/12/14 04:17:53;;;;;;;24.07;18.83;;;8.60;99.90;;;;;;5051960;28;20104;-70
2021/12/14 04:20:22;;;;;;;20.13;15.60;;;8.70;99.90;;;;;;5058106;28;20433;-70
2021/12/14 04:22:49;;;;;;;22.07;15.97;;;;;;;;;;5072018;28;20024;-70
2021/12/14 04:25:18;;;;;;;19.50;16.10;;;8.40;99.90;;;;;;5071111;28;20051;-70
2021/12/14 04:27:45;;;;;;;19.50;15.57;;;8.40;99.90;;;;;;5071805;28;20021;-70
2021/12/14 04:30:14;;;;;;;20.47;16.10;;;8.20;99.90;;;;;;5071563;28;20028;-70
2021/12/14 04:32:40;;;;;;;18.90;15.97;;;8.30;99.90;;;;;;5071833;28;20852;-70
2021/12/14 04:35:08;;;;;;;21.93;17.93;;;8.40;99.90;;;;;;5066837;28;20078;-70
2021/12/14 04:37:42;;;;;;;23.10;16.77;;;8.20;99.90;;;;;;5051359;28;20024;-70
2021/12/14 04:40:35;;;;;;;27.50;18.53;;;8.50;99.90;;;;;;5051313;28;20029;-70
2021/12/14 04:54:20;;;;;;;20.67;15.40;;;;;;;;;;5051058;28;20029;-70
2021/12/14 04:56:46;;;;;;;23.90;16.13;;;;;;;;;;5051328;28;20025;-70
2021/12/14 04:59:28;;;;;;;20.90;15.97;;;8.30;99.90;;;;;;5050773;28;20025;-70
2021/12/14 05:02:10;;;;;;;21.93;16.83;;;8.30;99.90;;;;;;5050902;28;20071;-70
2021/12/14 05:04:37;;;;;;;22.97;17.60;;;8.40;99.90;;;;;;5049560;28;20033;-69
2021/12/14 05:07:25;;;;;;;21.10;15.70;;;8.30;99.90;;;;;;5054932;28;20041;-70
2021/12/14 05:09:48;;;;;;;19.90;14.23;;;8.50;99.90;;;;;;5071042;28;20036;-70
2021/12/14 05:12:19;;;;;;;21.97;15.23;;;8.30;99.90;;;;;;5070710;28;20036;-70
2021/12/14 05:14:46;;;;;;;20.00;14.70;;;8.40;99.90;;;;;;5071239;28;20036;-70
2021/12/14 05:17:27;;;;;;;18.43;14.03;;;8.10;99.90;;;;;;5070512;28;20020;-70
2021/12/14 05:19:53;;;;;;;19.90;13.93;;;8.30;99.90;;;;;;5070406;28;20054;-70
2021/12/14 05:22:23;;;;;;;17.87;13.70;;;8.30;99.90;;;;;;5070274;28;20473;-70
2021/12/14 05:24:52;;;;;;;16.57;12.77;;;8.30;99.90;;;;;;5070673;28;20639;-70
2021/12/14 05:27:25;;;;;;;20.70;13.43;;;8.40;99.90;;;;;;5068698;28;20548;-70
2021/12/14 05:29:51;;;;;;;16.10;12.20;;;8.50;99.90;;;;;;5056503;28;20029;-70
2021/12/14 05:32:18;;;;;;;17.20;12.37;;;8.40;99.90;;;;;;5049028;28;20021;-70
2021/12/14 05:34:46;;;;;;;18.50;13.80;;;8.40;99.90;;;;;;5055761;28;20024;-70
2021/12/14 05:37:18;;;;;;;16.77;11.63;;;8.30;99.90;;;;;;5069156;28;20060;-70
2021/12/14 05:44:44;;;;;;;17.83;12.27;;;8.50;99.90;;;;;;5069939;28;20032;-70
2021/12/14 05:47:13;;;;;;;15.30;11.57;;;8.40;99.90;;;;;;5069893;28;20162;-70
2021/12/14 05:49:42;;;;;;;16.90;10.90;;;8.50;99.90;;;;;;5063512;28;20123;-70
2021/12/14 05:52:11;;;;;;;17.57;12.53;;;8.30;99.90;;;;;;5062755;28;20436;-70
2021/12/14 05:54:38;;;;;;;16.27;11.97;;;8.30;99.90;;;;;;5070073;28;20411;-70
2021/12/14 05:57:06;;;;;;;16.47;12.57;;;8.30;99.90;;;;;;5069025;28;20445;-70
2021/12/14 05:59:35;;;;;;;20.33;12.47;;;8.30;99.90;;;;;;5068408;28;20024;-70
2021/12/14 06:02:04;;;;;;;18.93;12.83;;;8.20;99.90;;;;;;5069688;28;20032;-70
2021/12/14 06:04:35;;;;;;;20.43;13.97;;;8.30;99.90;;;;;;5053085;28;20056;-70
2021/12/14 06:07:02;;;;;;;20.57;13.70;;;8.40;99.90;;;;;;5049706;28;20059;-70
2021/12/14 06:09:31;;;;;;;18.03;13.27;;;8.30;99.90;;;;;;5050164;28;20321;-70
2021/12/14 06:12:11;;;;;;;19.97;13.27;;;8.30;99.90;;;;;;5049450;28;20112;-70
2021/12/14 06:14:43;;;;;;;20.27;13.37;;;8.30;99.90;;;;;;5065461;28;20035;-70
2021/12/14 06:17:11;;;;;;;19.23;13.10;;;8.30;99.90;;;;;;5062222;28;20019;-70
2021/12/14 06:19:42;;;;;;;19.47;12.80;;;8.30;99.90;;;;;;5067585;28;20048;-70
2021/12/14 06:22:14;;;;;;;21.03;13.37;;;8.40;99.90;;;;;;5069001;28;20021;-70
2021/12/14 06:24:44;;;;;;;20.47;14.07;;;8.30;99.90;;;;;;5068997;28;20151;-70
2021/12/14 06:27:13;;;;;;;20.73;14.50;;;8.20;99.90;;;;;;5067259;28;20513;-69
2021/12/14 06:29:48;;;;;;;19.17;13.97;;;8.30;99.90;;;;;;5069141;28;20481;-69
2021/12/14 06:32:20;;;;;;;25.13;15.47;;;8.70;99.90;;;;;;5068062;28;20357;-70
2021/12/14 06:34:52;;;;;;;23.20;15.67;;;8.20;99.90;;;;;;5068272;28;20029;-70
2021/12/14 06:40:11;;;;;;;19.90;13.67;;;8.20;99.90;;;;;;5059760;28;20123;-70
2021/12/14 06:42:42;;;;;;;19.97;13.50;;;8.60;99.90;;;;;;5052549;28;20036;-70
2021/12/14 06:45:21;;;;;;;22.53;14.47;;;8.20;99.90;;;;;;5052546;28;20021;-70
2021/12/14 06:47:49;;;;;;;18.77;13.57;;;8.20;99.90;;;;;;5067290;28;20055;-70
2021/12/14 06:50:20;;;;;;;26.80;16.47;;;8.10;99.90;;;;;;5048232;28;20032;-70
2021/12/14 06:53:03;;;;;;;23.80;14.53;;;8.20;99.90;;;;;;5049118;28;20055;-70
2021/12/14 06:55:32;;;;;;;22.57;15.43;;;8.10;99.90;;;;;;5048474;28;20067;-70
2021/12/14 06:58:10;;;;;;;23.37;16.90;;;8.10;99.90;;;;;;5057914;28;20078;-70
2021/12/14 07:00:38;;;;;;;24.10;17.13;;;8.30;99.90;;;;;;5068951;28;20035;-70
2021/12/14 07:03:04;;;;;;;20.70;14.60;;;8.20;99.90;;;;;;5068175;28;20099;-70
2021/12/14 07:05:30;;;;;;;26.27;16.27;;;8.40;99.90;;;;;;5069054;28;20060;-69
2021/12/14 07:07:57;;;;;;;23.90;16.43;;;8.70;99.90;;;;;;5068686;28;20025;-69
2021/12/14 07:10:23;;;;;;;28.70;17.40;;;8.20;99.90;;;;;;5068805;28;20477;-69
2021/12/14 07:12:51;;;;;;;24.37;15.20;;;8.30;99.90;;;;;;5068781;28;20028;-68
2021/12/14 07:15:27;;;;;;;23.03;15.60;;;8.30;99.90;;;;;;5068730;28;20039;-69
2021/12/14 07:18:04;;;;;;;28.00;16.57;;;8.20;99.90;;;;;;5067408;28;20108;-69
2021/12/14 07:20:34;;;;;;;25.20;16.07;;;8.20;99.90;;;;;;5060975;28;20032;-69
2021/12/14 07:23:17;;;;;;;26.37;17.40;;;8.10;99.90;;;;;;5052887;28;20096;-69
2021/12/14 07:25:43;;;;;;;25.13;16.63;;;8.30;99.90;;;;;;5064799;28;20485;-69
2021/12/14 07:28:16;;;;;;;22.83;16.10;;;8.20;99.90;;;;;;5068418;28;20058;-69
2021/12/14 07:30:45;;;;;;;26.38;18.48;;;8.30;99.90;;;;;;5054931;28;20052;-69
2021/12/14 07:33:15;;;;;;;24.23;17.07;;;8.20;99.90;;;;;;5047833;28;20333;-69
2021/12/14 07:35:48;;;;;;;24.33;16.17;;;8.40;99.90;;;;;;5057738;28;20024;-69
2021/12/14 07:38:39;;;;;;;27.33;19.15;;;8.20;99.90;;;;;;5068182;28;20470;-70
2021/12/14 07:41:12;;;;;;;27.10;17.77;;;8.20;99.90;;;;;;5060729;28;20120;-70
2021/12/14 07:44:09;;;;;;;25.83;17.33;;;8.20;99.90;;;;;;5048477;28;20104;-69
2021/12/14 07:46:49;;;;;;;31.30;19.47;;;8.40;99.90;;;;;;5048515;28;20079;-69
2021/12/14 07:49:24;;;;;;;26.57;17.93;;;8.30;99.90;;;;;;5052884;28;20419;-69
2021/12/14 07:52:00;;;;;;;30.83;19.77;;;8.40;99.90;;;;;;5067857;28;20033;-70
2021/12/14 07:54:33;;;;;;;24.50;16.63;;;8.40;99.90;;;;;;5068861;28;20021;-69
2021/12/14 07:56:59;;;;;;;26.53;17.90;;;;;;;;;;5064870;28;20381;-69
2021/12/14 07:59:29;;;;;;;26.67;18.67;;;8.30;99.90;;;;;;5065779;28;20024;-70
2021/12/14 08:02:22;;;;;;;30.67;19.80;;;8.30;99.90;;;;;;5065283;28;20020;-68
2021/12/14 08:04:58;;;;;;;25.50;16.90;;;8.60;99.90;;;;;;5052904;28;21287;-68
2021/12/14 08:07:28;;;;;;;29.83;18.80;;;8.30;99.90;;;;;;5055840;28;20516;-68
2021/12/14 08:10:05;;;;;;;28.37;18.90;;;8.10;99.90;;;;;;5051051;28;20066;-68
2021/12/14 08:12:31;;;;;;;28.47;19.37;;;;;;;;;;5060043;28;20029;-68
2021/12/14 08:15:16;;;;;;;27.00;19.00;;;8.30;99.90;;;;;;5061864;28;20032;-68
2021/12/14 08:17:42;;;;;;;26.50;18.50;;;8.30;99.90;;;;;;5061433;28;20500;-68
2021/12/14 08:20:20;;;;;;;26.87;17.90;;;8.40;99.90;;;;;;5063086;28;20041;-68
2021/12/14 08:22:47;;;;;;;27.90;18.90;;;8.50;99.90;;;;;;5063549;28;20409;-68
2021/12/14 08:25:15;;;;;;;26.77;19.20;;;8.30;99.90;;;;;;5062141;28;20048;-69
2021/12/14 08:27:42;;;;;;;27.97;18.30;;;8.90;99.90;;;;;;5069823;28;20028;-68
2021/12/14 08:30:14;;;;;;;31.57;19.27;;;8.40;99.90;;;;;;5050883;28;20032;-68
2021/12/14 08:32:41;;;;;;;34.43;22.10;;;8.50;99.90;;;;;;5051440;28;20037;-68
2021/12/14 08:35:10;;;;;;;31.03;20.80;;;8.40;99.90;;;;;;5054601;28;20029;-68
2021/12/14 08:37:46;;;;;;;33.37;21.73;;;8.50;99.90;;;;;;5065492;28;20029;-68
2021/12/14 08:40:28;;;;;;;33.57;23.00;;;8.60;99.90;;;;;;5050959;28;20119;-68
2021/12/14 08:43:02;;;;;;;33.20;22.30;;;8.50;99.90;;;;;;5052086;28;20079;-68
2021/12/14 08:45:33;;;;;;;;;;;8.50;99.90;;;;;;5071754;28;20021;-68
2021/12/14 08:48:02;;;;;;;28.00;19.20;;;8.70;99.90;;;;;;5069689;28;19904;-68
2021/12/14 08:50:30;;;;;;;32.93;21.07;;;8.60;99.90;;;;;;5062183;28;20029;-68
2021/12/14 08:52:57;;;;;;;28.40;20.37;;;8.50;99.90;;;;;;5064801;28;20044;-68
2021/12/14 08:55:27;;;;;;;29.57;20.07;;;8.70;99.90;;;;;;5071036;28;20027;-68
2021/12/14 08:57:53;;;;;;;34.43;22.60;;;;;;;;;;5060930;28;20033;-68
2021/12/14 09:00:25;;;;;;;33.87;22.17;;;8.60;99.90;;;;;;5049059;28;20043;-69
2021/12/14 09:02:53;;;;;;;37.17;23.60;;;8.70;99.90;;;;;;5050471;28;20047;-68
2021/12/14 09:05:46;;;;;;;36.73;24.20;;;8.60;99.90;;;;;;5054116;28;20410;-68
2021/12/14 09:08:13;;;;;;;35.77;23.53;;;8.70;99.90;;;;;;5064651;28;20405;-68
2021/12/14 09:10:41;;;;;;;36.83;23.87;;;8.80;99.90;;;;;;5070006;28;20063;-68
2021/12/14 09:13:11;;;;;;;36.03;23.17;;;8.90;99.90;;;;;;5062365;28;20074;-68
2021/12/14 09:15:51;;;;;;;34.93;23.97;;;8.90;99.90;;;;;;5053669;28;20029;-68
2021/12/14 09:18:18;;;;;;;33.97;23.33;;;9.00;99.90;;;;;;5049819;28;20048;-68
2021/12/14 09:20:54;;;;;;;42.33;25.53;;;8.80;99.90;;;;;;5067091;28;20123;-68
2021/12/14 09:23:25;;;;;;;36.17;24.43;;;8.40;99.90;;;;;;5070869;28;20424;-68
2021/12/14 09:25:52;;;;;;;41.87;26.40;;;8.80;99.90;;;;;;5070305;28;20040;-68
2021/12/14 09:28:18;;;;;;;39.60;26.57;;;8.80;99.90;;;;;;5070232;28;20089;-68
2021/12/14 09:30:48;;;;;;;37.30;24.97;;;9.00;99.90;;;;;;5054413;28;20427;-68
2021/12/14 09:33:15;;;;;;;38.93;25.20;;;9.00;99.90;;;;;;5050423;28;20076;-68
2021/12/14 09:35:42;;;;;;;44.23;27.57;;;8.80;99.90;;;;;;5049263;28;20469;-68
2021/12/14 09:38:11;;;;;;;40.77;26.97;;;8.90;99.90;;;;;;5049973;28;20025;-68
2021/12/14 09:40:51;;;;;;;37.47;23.50;;;8.80;99.90;;;;;;5050432;28;20033;-68
2021/12/14 09:43:18;;;;;;;37.83;25.83;;;8.80;99.90;;;;;;5050056;28;20017;-68
2021/12/14 09:45:51;;;;;;;40.97;26.47;;;8.90;99.90;;;;;;5055238;28;20025;-68
2021/12/14 09:48:22;;;;;;;37.75;24.45;;;9.00;99.90;;;;;;5070128;28;20025;-68
2021/12/14 09:50:49;;;;;;;41.93;28.07;;;9.20;99.90;;;;;;5068455;28;20082;-68
2021/12/14 09:53:20;;;;;;;45.57;30.37;;;9.00;99.90;;;;;;5070090;28;20025;-68
2021/12/14 09:55:49;;;;;;;54.30;29.53;;;9.10;99.90;;;;;;5070175;28;20027;-69
2021/12/14 09:58:25;;;;;;;40.13;26.57;;;9.20;99.90;;;;;;5069904;28;20056;-68
2021/12/14 10:01:11;;;;;;;41.27;26.60;;;9.20;99.90;;;;;;5052550;28;20029;-68
2021/12/14 10:03:38;;;;;;;44.10;27.13;;;9.10;99.90;;;;;;5049579;28;20044;-68
2021/12/14 10:06:09;;;;;;;43.90;30.13;;;9.20;99.90;;;;;;5049596;28;20132;-69
2021/12/14 10:08:42;;;;;;;43.87;28.13;;;9.10;99.90;;;;;;5048355;28;20031;-68
2021/12/14 10:11:14;;;;;;;41.53;25.65;;;9.10;99.90;;;;;;5049177;28;20070;-68
2021/12/14 10:13:44;;;;;;;43.53;28.07;;;9.20;99.90;;;;;;5049769;28;20052;-68
2021/12/14 10:16:11;;;;;;;39.87;26.73;;;9.40;99.90;;;;;;5054493;28;20017;-69
2021/12/14 10:18:43;;;;;;;39.00;26.60;;;9.20;99.90;;;;;;5056872;28;20108;-69
2021/12/14 10:21:27;;;;;;;42.93;27.83;;;9.40;99.90;;;;;;5058598;28;20119;-69
2021/12/14 10:23:53;;;;;;;;;;;9.20;99.90;;;;;;5059904;28;20041;-69
2021/12/14 10:26:22;;;;;;;41.50;27.73;;;9.10;99.90;;;;;;5057433;28;19912;-69
2021/12/14 10:28:53;;;;;;;49.10;30.00;;;9.30;99.90;;;;;;5061635;28;20028;-69
2021/12/14 10:31:41;;;;;;;46.40;30.00;;;9.30;99.90;;;;;;5059711;28;20068;-69
2021/12/14 10:34:17;;;;;;;46.80;29.67;;;9.60;99.90;;;;;;5056278;28;20013;-69
2021/12/14 10:36:46;;;;;;;48.47;28.23;;;;;;;;;;5057570;28;20021;-69
2021/12/14 10:44:50;;;;;;;50.90;31.60;;;9.40;99.90;;;;;;5066652;28;20325;-69
2021/12/14 10:47:19;;;;;;;52.30;32.17;;;9.60;99.90;;;;;;5062453;28;20492;-69
2021/12/14 10:49:45;;;;;;;49.77;31.90;;;9.70;99.90;;;;;;5058080;28;20472;-68
2021/12/14 10:52:16;;;;;;;53.53;32.43;;;9.80;99.90;;;;;;5059848;28;20140;-69
2021/12/14 10:54:46;;;;;;;55.77;33.57;;;9.70;99.90;;;;;;5061051;28;20024;-68
2021/12/14 10:57:16;;;;;;;49.43;33.27;;;9.80;99.90;;;;;;5057802;28;20025;-69
2021/12/14 10:59:45;;;;;;;56.10;31.10;;;10.00;99.90;;;;;;5055517;28;20055;-69
2021/12/14 11:02:11;;;;;;;50.07;33.77;;;9.70;99.90;;;;;;5058521;28;20029;-69
2021/12/14 11:04:52;;;;;;;50.57;34.70;;;8.10;99.90;;;;;;5067447;28;20071;-69
2021/12/14 11:07:23;;;;;;;52.80;33.43;;;9.80;99.90;;;;;;5060129;28;20076;-68
2021/12/14 11:09:53;;;;;;;53.53;33.10;;;9.70;99.90;;;;;;5056466;28;20084;-69
2021/12/14 11:12:29;;;;;;;44.43;30.00;;;10.00;99.90;;;;;;5069153;28;20036;-69
2021/12/14 11:15:04;;;;;;;48.83;31.83;;;9.90;99.90;;;;;;5068743;28;20075;-69
2021/12/14 11:20:24;;;;;;;51.63;32.73;;;9.60;99.90;;;;;;5068833;28;20412;-68
2021/12/14 11:23:18;;;;;;;50.40;31.07;;;10.10;99.90;;;;;;5068758;28;20032;-69
2021/12/14 11:25:54;;;;;;;53.37;33.97;;;9.90;99.90;;;;;;5063697;28;20142;-69
2021/12/14 11:28:33;;;;;;;54.80;35.07;;;10.00;99.90;;;;;;5058580;28;20270;-69
2021/12/14 11:31:01;;;;;;;57.70;34.33;;;;;;;;;;5061508;28;20066;-68
2021/12/14 11:33:31;;;;;;;61.63;34.57;;;9.30;99.90;;;;;;5066589;28;20035;-68
2021/12/14 11:36:02;;;;;;;54.30;34.83;;;9.90;99.90;;;;;;5056804;28;20025;-68
2021/12/14 11:38:56;;;;;;;53.10;34.70;;;10.00;99.90;;;;;;5054002;28;20443;-68
2021/12/14 11:41:40;;;;;;;52.60;33.22;;;9.90;99.90;;;;;;5062206;28;20036;-68
2021/12/14 11:44:23;;;;;;;53.53;35.13;;;9.80;99.90;;;;;;5059969;28;20500;-68
2021/12/14 11:47:01;;;;;;;57.63;35.63;;;9.90;99.90;;;;;;5060951;28;20025;-68
2021/12/14 11:49:48;;;;;;;60.10;37.03;;;10.00;99.90;;;;;;5072104;28;20395;-69
2021/12/14 11:52:33;;;;;;;49.90;32.80;;;9.90;99.90;;;;;;5072176;28;20047;-68
2021/12/14 11:54:59;;;;;;;60.07;38.37;;;9.90;99.90;;;;;;5066120;28;20511;-68
2021/12/14 11:57:32;;;;;;;54.00;37.20;;;10.00;99.90;;;;;;5059000;28;20025;-69
2021/12/14 12:00:20;;;;;;;60.37;38.40;;;10.20;99.90;;;;;;5052438;28;20032;-69
2021/12/14 12:02:46;;;;;;;65.17;36.50;;;10.20;99.90;;;;;;5051035;28;20502;-68
2021/12/14 12:05:19;;;;;;;56.87;36.50;;;9.60;99.90;;;;;;5051908;28;20076;-68
2021/12/14 12:11:03;;;;;;;59.30;36.07;;;10.00;99.90;;;;;;5054367;28;20028;-68
2021/12/14 12:13:38;;;;;;;61.63;38.70;;;10.10;99.90;;;;;;5070421;28;20040;-68
2021/12/14 12:16:16;;;;;;;63.37;38.40;;;10.00;99.90;;;;;;5068728;28;20473;-69
2021/12/14 12:19:10;;;;;;;65.23;38.70;;;10.20;99.90;;;;;;5065541;28;20046;-69
2021/12/14 12:21:37;;;;;;;60.30;38.97;;;10.10;99.90;;;;;;5070274;28;20497;-68
2021/12/14 12:24:26;;;;;;;63.00;37.33;;;10.10;99.90;;;;;;5051487;28;20389;-68
2021/12/14 12:26:52;;;;;;;51.63;34.13;;;;;;;;;;5051193;28;20073;-70
2021/12/14 12:29:26;;;;;;;63.73;38.60;;;10.10;99.90;;;;;;5051473;28;20169;-68
2021/12/14 12:31:59;;;;;;;60.20;37.83;;;;;;;;;;5051643;28;20040;-68
2021/12/14 12:34:35;;;;;;;55.95;36.92;;;9.90;99.90;;;;;;5051938;28;20025;-68
2021/12/14 12:37:00;;;;;;;58.27;36.37;;;9.90;99.90;;;;;;5050200;28;20481;-68
2021/12/14 12:39:29;;;;;;;60.77;38.50;;;9.90;99.90;;;;;;5051489;28;20131;-68
2021/12/14 12:42:00;;;;;;;65.33;37.87;;;9.30;99.90;;;;;;5051147;28;20044;-68
2021/12/14 12:44:39;;;;;;;61.00;37.13;;;9.80;99.90;;;;;;5051601;28;20032;-68
2021/12/14 12:47:09;;;;;;;63.03;37.60;;;9.90;99.90;;;;;;5051486;28;20529;-68
2021/12/14 12:49:50;;;;;;;63.87;38.37;;;9.90;99.90;;;;;;5051535;28;20028;-68
2021/12/14 12:52:16;;;;;;;59.50;37.17;;;;;;;;;;5049506;28;20139;-68
2021/12/14 12:55:05;;;;;;;62.23;40.73;;;10.00;99.90;;;;;;5051140;28;20149;-68
2021/12/14 12:57:54;;;;;;;66.33;38.57;;;9.90;99.90;;;;;;5060276;28;20021;-68
2021/12/14 13:00:21;;;;;;;64.67;38.13;;;;;;;;;;5050555;28;20037;-68
2021/12/14 13:03:13;;;;;;;71.17;41.40;;;9.80;99.90;;;;;;5051000;28;20071;-68
2021/12/14 13:05:49;;;;;;;65.80;40.20;;;10.00;99.90;;;;;;5049252;28;20056;-68
2021/12/14 13:08:29;;;;;;;64.43;36.83;;;9.80;99.90;;;;;;5050624;28;20021;-68
2021/12/14 13:11:12;;;;;;;74.83;42.80;;;9.80;99.90;;;;;;5056818;28;20381;-67
2021/12/14 13:14:01;;;;;;;80.57;44.50;;;9.90;99.90;;;;;;5070874;28;20028;-68
2021/12/14 13:16:27;;;;;;;71.27;43.50;;;9.80;99.90;;;;;;5070745;28;20469;-68
2021/12/14 13:19:11;;;;;;;67.73;40.57;;;9.60;99.90;;;;;;5070380;28;20031;-68
2021/12/14 13:21:48;;;;;;;73.05;42.53;;;9.80;99.90;;;;;;5070195;28;20384;-68
2021/12/14 13:24:19;;;;;;;73.87;42.40;;;9.90;99.90;;;;;;5050148;28;20048;-68
2021/12/14 13:26:50;;;;;;;80.47;44.87;;;9.70;99.90;;;;;;5050205;28;20017;-68
2021/12/14 13:29:19;;;;;;;77.50;44.63;;;9.80;99.90;;;;;;5050679;28;20021;-68
2021/12/14 13:32:09;;;;;;;77.50;43.67;;;9.80;99.90;;;;;;5063639;28;20020;-68
2021/12/14 13:34:34;;;;;;;67.20;38.13;;;9.80;99.90;;;;;;5070244;28;20469;-68
2021/12/14 13:37:03;;;;;;;86.47;45.50;;;9.70;99.90;;;;;;5069939;28;20043;-68
2021/12/14 13:39:29;;;;;;;76.13;42.90;;;9.70;99.90;;;;;;5070477;28;20052;-68
2021/12/14 13:42:04;;;;;;;73.90;41.67;;;9.70;99.90;;;;;;5069856;28;20419;-68
2021/12/14 13:44:33;;;;;;;77.83;43.57;;;9.60;99.90;;;;;;5050317;28;20044;-68
2021/12/14 13:47:00;;;;;;;69.20;40.03;;;9.70;99.90;;;;;;5050942;28;20186;-67
2021/12/14 13:49:27;;;;;;;81.97;45.60;;;9.70;99.90;;;;;;5054783;28;20032;-68